createdAt,value
2018-06-25T00:00:17.922Z,201.00
2018-06-25T00:02:46.464Z,172.87
2018-06-25T00:05:15.053Z,185.37
2018-06-25T00:07:43.552Z,190.10
2018-06-25T00:10:12.107Z,156.57
2018-06-25T00:12:40.638Z,186.53
2018-06-25T00:15:09.203Z,170.13
2018-06-25T00:17:37.741Z,167.13
2018-06-25T00:20:06.082Z,168.70
2018-06-25T00:22:34.601Z,176.00
2018-06-25T00:25:03.224Z,185.90
2018-06-25T00:27:31.880Z,184.60
2018-06-25T00:30:00.421Z,169.00
2018-06-25T00:32:28.979Z,188.67
2018-06-25T00:34:57.573Z,210.10
2018-06-25T00:37:26.151Z,172.07
2018-06-25T00:39:54.690Z,173.87
2018-06-25T00:42:22.932Z,193.17
2018-06-25T00:44:51.492Z,192.67
2018-06-25T00:47:20.055Z,173.57
2018-06-25T00:49:48.636Z,170.77
2018-06-25T00:52:17.180Z,188.67
2018-06-25T00:54:45.801Z,212.30
2018-06-25T00:57:14.308Z,168.70
2018-06-25T00:59:55.372Z,190.63
2018-06-25T01:02:24.312Z,195.63
2018-06-25T01:04:53.158Z,169.60
2018-06-25T01:07:21.875Z,192.97
2018-06-25T01:09:50.418Z,186.93
2018-06-25T01:12:18.990Z,188.57
2018-06-25T01:14:47.207Z,179.43
2018-06-25T01:17:15.778Z,211.57
2018-06-25T01:19:44.335Z,189.03
2018-06-25T01:22:12.840Z,206.03
2018-06-25T01:24:41.379Z,205.97
2018-06-25T01:27:10.756Z,199.60
2018-06-25T01:29:41.530Z,188.30
2018-06-25T01:32:10.138Z,189.43
2018-06-25T01:34:39.016Z,210.13
2018-06-25T01:37:07.735Z,207.73
2018-06-25T01:39:36.321Z,193.07
2018-06-25T01:42:04.900Z,211.73
2018-06-25T01:44:33.459Z,201.27
2018-06-25T01:47:02.015Z,182.87
2018-06-25T01:49:30.541Z,216.90
2018-06-25T01:51:59.117Z,189.97
2018-06-25T01:54:27.655Z,203.20
2018-06-25T01:56:56.194Z,208.07
2018-06-25T01:59:24.703Z,216.57
2018-06-25T02:01:53.338Z,217.13
2018-06-25T02:04:21.885Z,219.10
2018-06-25T02:06:50.425Z,257.00
2018-06-25T02:09:18.953Z,230.60
2018-06-25T02:11:47.449Z,241.33
2018-06-25T02:14:16.015Z,227.00
2018-06-25T02:16:44.558Z,229.67
2018-06-25T02:19:13.113Z,187.70
2018-06-25T02:21:41.651Z,229.70
2018-06-25T02:24:10.220Z,204.43
2018-06-25T02:26:38.733Z,203.43
2018-06-25T02:29:07.253Z,205.23
2018-06-25T02:31:35.793Z,220.20
2018-06-25T02:34:04.409Z,205.77
2018-06-25T02:36:32.709Z,216.83
2018-06-25T02:39:01.215Z,233.17
2018-06-25T02:41:30.514Z,201.30
2018-06-25T02:43:59.144Z,222.53
2018-06-25T02:46:27.693Z,178.93
2018-06-25T02:48:56.270Z,208.17
2018-06-25T02:51:24.797Z,193.17
2018-06-25T02:53:53.430Z,178.53
2018-06-25T02:56:22.009Z,182.10
2018-06-25T02:58:50.551Z,224.50
2018-06-25T03:01:19.134Z,159.57
2018-06-25T03:03:48.526Z,170.73
2018-06-25T03:06:17.298Z,165.23
2018-06-25T03:08:45.820Z,139.33
2018-06-25T03:11:14.472Z,149.37
2018-06-25T03:13:43.039Z,141.33
2018-06-25T03:16:11.592Z,144.97
2018-06-25T03:18:40.135Z,142.27
2018-06-25T03:21:09.030Z,152.57
2018-06-25T03:23:37.560Z,141.87
2018-06-25T03:26:06.112Z,141.47
2018-06-25T03:28:34.649Z,138.40
2018-06-25T03:31:03.279Z,123.93
2018-06-25T03:33:31.488Z,153.57
2018-06-25T03:36:00.020Z,141.50
2018-06-25T03:38:28.627Z,181.20
2018-06-25T03:40:57.221Z,159.20
2018-06-25T03:43:25.752Z,184.30
2018-06-25T03:45:54.324Z,188.33
2018-06-25T03:48:22.910Z,186.67
2018-06-25T03:50:51.477Z,171.33
2018-06-25T03:53:20.022Z,201.30
2018-06-25T03:55:48.607Z,192.77
2018-06-25T03:58:17.153Z,187.13
2018-06-25T04:00:45.741Z,183.93
2018-06-25T04:03:14.260Z,170.83
2018-06-25T04:05:43.103Z,171.60
2018-06-25T04:08:11.629Z,140.23
2018-06-25T04:10:40.141Z,138.60
2018-06-25T04:13:08.702Z,153.17
2018-06-25T04:15:37.237Z,171.00
2018-06-25T04:18:06.554Z,174.70
2018-06-25T04:20:35.112Z,151.93
2018-06-25T04:23:03.761Z,187.10
2018-06-25T04:25:32.291Z,207.40
2018-06-25T04:28:00.873Z,187.63
2018-06-25T04:30:29.611Z,222.07
2018-06-25T04:32:57.869Z,227.33
2018-06-25T04:35:26.398Z,231.37
2018-06-25T04:37:55.006Z,229.77
2018-06-25T04:40:23.621Z,232.13
2018-06-25T04:42:52.167Z,182.07
2018-06-25T04:45:20.685Z,188.97
2018-06-25T04:47:49.213Z,202.27
2018-06-25T04:50:17.810Z,219.60
2018-06-25T04:52:46.387Z,238.07
2018-06-25T04:55:14.953Z,237.00
2018-06-25T04:57:43.168Z,234.63
2018-06-25T05:00:11.733Z,305.43
2018-06-25T05:02:40.259Z,299.27
2018-06-25T05:05:08.838Z,325.17
2018-06-25T05:07:37.369Z,327.07
2018-06-25T05:10:05.940Z,318.93
2018-06-25T05:12:34.497Z,300.73
2018-06-25T05:15:03.046Z,298.97
2018-06-25T05:17:31.611Z,380.57
2018-06-25T05:20:00.141Z,349.87
2018-06-25T05:22:28.691Z,355.20
2018-06-25T05:24:57.205Z,344.83
2018-06-25T05:27:25.742Z,370.70
2018-06-25T05:29:54.241Z,314.37
2018-06-25T05:32:22.840Z,222.20
2018-06-25T05:34:51.349Z,250.17
2018-06-25T05:37:19.992Z,221.27
2018-06-25T05:39:48.719Z,274.73
2018-06-25T05:42:21.241Z,257.20
2018-06-25T05:44:50.801Z,283.10
2018-06-25T05:47:19.728Z,281.67
2018-06-25T05:49:48.486Z,289.63
2018-06-25T05:52:17.177Z,301.50
2018-06-25T05:54:45.747Z,326.43
2018-06-25T05:57:15.105Z,286.30
2018-06-25T05:59:43.888Z,272.33
2018-06-25T06:02:12.504Z,286.53
2018-06-25T06:04:41.137Z,318.20
2018-06-25T06:07:10.411Z,302.37
2018-06-25T06:09:39.169Z,314.87
2018-06-25T06:12:07.738Z,308.33
2018-06-25T06:14:36.291Z,299.23
2018-06-25T06:17:04.867Z,303.10
2018-06-25T06:19:33.485Z,315.27
2018-06-25T06:22:02.146Z,376.33
2018-06-25T06:24:31.134Z,379.13
2018-06-25T06:26:59.762Z,399.83
2018-06-25T06:29:28.417Z,350.17
2018-06-25T06:31:56.925Z,380.67
2018-06-25T06:34:25.492Z,381.03
2018-06-25T06:36:53.773Z,370.00
2018-06-25T06:39:22.342Z,369.87
2018-06-25T06:41:50.898Z,346.03
2018-06-25T06:44:19.596Z,391.53
2018-06-25T06:46:48.104Z,385.50
2018-06-25T06:49:16.653Z,365.73
2018-06-25T06:51:45.205Z,382.80
2018-06-25T06:54:13.762Z,428.47
2018-06-25T06:56:42.363Z,350.27
2018-06-25T06:59:10.950Z,358.37
2018-06-25T07:01:39.482Z,384.30
2018-06-25T07:04:08.069Z,301.40
2018-06-25T07:06:36.636Z,319.70
2018-06-25T07:09:08.600Z,284.73
2018-06-25T07:11:37.289Z,316.23
2018-06-25T07:14:06.647Z,331.27
2018-06-25T07:16:35.226Z,321.90
2018-06-25T07:19:04.048Z,332.30
2018-06-25T07:21:32.598Z,152.50
2018-06-25T07:24:01.139Z,267.57
2018-06-25T07:26:29.774Z,227.83
2018-06-25T07:28:58.361Z,187.13
2018-06-25T07:31:26.873Z,83.87
2018-06-25T07:33:55.404Z,57.90
2018-06-25T07:36:23.972Z,75.40
2018-06-25T07:38:52.622Z,75.00
2018-06-25T07:41:21.151Z,93.53
2018-06-25T07:43:49.689Z,63.90
2018-06-25T07:46:18.195Z,69.30
2018-06-25T07:48:46.764Z,33.07
2018-06-25T07:51:15.427Z,56.77
2018-06-25T07:53:43.939Z,37.90
2018-06-25T07:56:12.499Z,39.90
2018-06-25T07:58:41.062Z,36.13
2018-06-25T08:01:09.596Z,36.80
2018-06-25T08:03:38.219Z,34.57
2018-06-25T08:06:06.803Z,36.23
2018-06-25T08:08:35.327Z,35.63
2018-06-25T08:11:03.872Z,71.97
2018-06-25T08:13:32.399Z,43.93
2018-06-25T08:16:01.005Z,41.13
2018-06-25T08:18:29.534Z,38.57
2018-06-25T08:20:58.066Z,70.20
2018-06-25T08:23:26.631Z,189.27
2018-06-25T08:25:55.221Z,161.43
2018-06-25T08:28:23.789Z,222.53
2018-06-25T08:30:52.296Z,193.20
2018-06-25T08:33:20.886Z,246.77
2018-06-25T08:35:49.416Z,240.37
2018-06-25T08:38:17.953Z,227.13
2018-06-25T08:40:46.557Z,211.57
2018-06-25T08:43:15.178Z,234.20
2018-06-25T08:45:43.768Z,242.23
2018-06-25T08:48:12.324Z,222.23
2018-06-25T08:50:40.896Z,204.30
2018-06-25T08:53:09.481Z,189.23
2018-06-25T08:55:37.774Z,222.60
2018-06-25T08:58:06.354Z,193.93
2018-06-25T09:00:34.925Z,194.23
2018-06-25T09:03:03.215Z,61.20
2018-06-25T09:05:31.739Z,60.00
2018-06-25T09:08:00.367Z,122.40
2018-06-25T09:10:28.921Z,78.23
2018-06-25T09:12:57.505Z,98.93
2018-06-25T09:15:26.074Z,96.07
2018-06-25T09:17:54.635Z,108.07
2018-06-25T09:20:23.966Z,111.93
2018-06-25T09:22:52.529Z,119.70
2018-06-25T09:25:21.089Z,80.10
2018-06-25T09:27:50.262Z,89.20
2018-06-25T09:30:19.783Z,70.03
2018-06-25T09:32:48.050Z,90.97
2018-06-25T09:35:16.654Z,97.33
2018-06-25T09:37:45.246Z,198.40
2018-06-25T09:40:13.824Z,208.87
2018-06-25T09:42:42.428Z,274.43
2018-06-25T09:45:12.026Z,261.93
2018-06-25T09:47:40.605Z,162.77
2018-06-25T09:50:08.801Z,209.47
2018-06-25T09:52:37.438Z,155.33
2018-06-25T09:55:06.186Z,217.90
2018-06-25T09:57:34.832Z,353.77
2018-06-25T10:00:03.434Z,302.93
2018-06-25T10:02:41.847Z,287.40
2018-06-25T10:05:16.510Z,355.70
2018-06-25T10:07:45.218Z,431.67
2018-06-25T10:10:13.768Z,341.77
2018-06-25T10:12:42.377Z,536.37
2018-06-25T10:15:10.893Z,549.43
2018-06-25T10:17:39.173Z,545.27
2018-06-25T10:20:08.009Z,170.20
2018-06-25T10:22:36.533Z,306.60
2018-06-25T10:25:05.381Z,334.83
2018-06-25T10:27:37.745Z,164.00
2018-06-25T10:30:15.453Z,155.80
2018-06-25T10:32:43.788Z,259.97
2018-06-25T10:35:12.324Z,233.07
2018-06-25T10:37:40.886Z,409.40
2018-06-25T10:40:09.445Z,246.70
2018-06-25T10:42:38.046Z,181.77
2018-06-25T10:45:06.637Z,51.17
2018-06-25T10:47:35.194Z,37.83
2018-06-25T10:50:03.475Z,20.60
2018-06-25T10:52:32.013Z,14.23
2018-06-25T10:55:00.633Z,30.73
2018-06-25T10:57:28.877Z,31.13
2018-06-25T10:59:57.608Z,20.50
2018-06-25T11:02:26.128Z,22.67
2018-06-25T11:04:54.696Z,22.83
2018-06-25T11:07:23.268Z,20.27
2018-06-25T11:09:51.889Z,21.63
2018-06-25T11:12:20.497Z,21.00
2018-06-25T11:14:49.038Z,23.53
2018-06-25T11:17:24.224Z,19.73
2018-06-25T11:19:52.810Z,17.53
2018-06-25T11:22:21.463Z,15.27
2018-06-25T11:24:50.045Z,16.87
2018-06-25T11:27:18.721Z,19.63
2018-06-25T11:29:47.211Z,23.43
2018-06-25T11:32:15.771Z,26.80
2018-06-25T11:34:44.505Z,34.47
2018-06-25T11:37:13.272Z,22.90
2018-06-25T11:39:41.969Z,18.30
2018-06-25T11:42:10.703Z,19.20
2018-06-25T11:44:39.254Z,20.20
2018-06-25T11:47:07.775Z,19.33
2018-06-25T11:49:36.335Z,18.57
2018-06-25T11:52:05.163Z,18.13
2018-06-25T11:54:33.694Z,16.40
2018-06-25T11:57:02.255Z,17.73
2018-06-25T11:59:30.849Z,22.43
2018-06-25T12:02:01.587Z,21.67
2018-06-25T12:04:30.713Z,21.53
2018-06-25T12:06:59.390Z,24.90
2018-06-25T12:09:27.923Z,22.50
2018-06-25T12:11:56.741Z,24.50
2018-06-25T12:14:25.257Z,34.73
2018-06-25T12:16:53.810Z,31.23
2018-06-25T12:19:22.357Z,35.33
2018-06-25T12:21:51.008Z,33.70
2018-06-25T12:24:23.114Z,31.97
2018-06-25T12:26:51.669Z,35.33
2018-06-25T12:29:20.322Z,38.27
2018-06-25T12:31:48.882Z,36.30
2018-06-25T12:34:17.405Z,38.70
2018-06-25T12:36:45.978Z,50.40
2018-06-25T12:39:14.645Z,29.17
2018-06-25T12:41:44.340Z,45.53
2018-06-25T12:44:14.319Z,69.40
2018-06-25T12:46:43.433Z,58.10
2018-06-25T12:49:11.930Z,64.13
2018-06-25T12:51:41.834Z,73.43
2018-06-25T12:54:11.504Z,134.37
2018-06-25T12:56:40.803Z,196.67
2018-06-25T12:59:11.366Z,65.40
2018-06-25T13:01:40.727Z,103.33
2018-06-25T13:04:10.923Z,134.27
2018-06-25T13:06:40.683Z,227.17
2018-06-25T13:09:09.500Z,95.00
2018-06-25T13:11:38.012Z,186.67
2018-06-25T13:14:06.631Z,267.87
2018-06-25T13:16:35.506Z,268.20
2018-06-25T13:19:04.346Z,293.70
2018-06-25T13:21:32.865Z,372.53
2018-06-25T13:24:01.418Z,329.00
2018-06-25T13:26:30.198Z,336.77
2018-06-25T13:28:58.771Z,347.40
2018-06-25T13:31:27.511Z,349.40
2018-06-25T13:33:56.894Z,345.90
2018-06-25T13:36:25.478Z,304.70
2018-06-25T13:38:54.026Z,330.20
2018-06-25T13:41:22.713Z,343.83
2018-06-25T13:43:51.307Z,349.53
2018-06-25T13:46:19.548Z,192.83
2018-06-25T13:48:48.111Z,205.10
2018-06-25T13:51:16.686Z,262.73
2018-06-25T13:53:45.274Z,316.53
2018-06-25T13:56:13.828Z,323.37
2018-06-25T13:58:42.397Z,332.07
2018-06-25T14:01:10.999Z,335.57
2018-06-25T14:03:39.636Z,339.27
2018-06-25T14:06:08.220Z,331.57
2018-06-25T14:08:36.786Z,302.33
2018-06-25T14:11:05.327Z,359.57
2018-06-25T14:13:33.615Z,290.87
2018-06-25T14:16:02.197Z,363.37
2018-06-25T14:18:30.781Z,360.13
2018-06-25T14:20:59.375Z,354.47
2018-06-25T14:23:28.022Z,348.70
2018-06-25T14:26:02.005Z,337.53
2018-06-25T14:28:32.574Z,367.47
2018-06-25T14:31:06.784Z,345.93
2018-06-25T14:33:48.493Z,346.23
2018-06-25T14:36:17.025Z,363.03
2018-06-25T14:38:45.597Z,337.43
2018-06-25T14:41:14.249Z,328.07
2018-06-25T14:43:42.866Z,370.37
2018-06-25T14:46:12.061Z,326.73
2018-06-25T14:48:40.669Z,253.13
2018-06-25T14:51:09.281Z,369.70
2018-06-25T14:53:37.841Z,306.77
2018-06-25T14:56:06.422Z,360.17
2018-06-25T14:58:35.006Z,384.10
2018-06-25T15:01:04.499Z,433.10
2018-06-25T15:03:33.167Z,426.63
2018-06-25T15:06:01.807Z,437.70
2018-06-25T15:08:30.418Z,414.37
2018-06-25T15:10:59.518Z,417.43
2018-06-25T15:13:28.053Z,446.60
2018-06-25T15:15:56.681Z,456.83
2018-06-25T15:18:24.952Z,437.80
2018-06-25T15:20:53.494Z,430.63
2018-06-25T15:23:22.035Z,436.13
2018-06-25T15:25:50.632Z,428.37
2018-06-25T15:28:19.231Z,445.67
2018-06-25T15:30:47.812Z,351.57
2018-06-25T15:33:16.475Z,332.70
2018-06-25T15:35:45.104Z,349.00
2018-06-25T15:38:13.660Z,341.63
2018-06-25T15:40:42.234Z,232.53
2018-06-25T15:43:10.812Z,132.90
2018-06-25T15:45:39.320Z,132.17
2018-06-25T15:48:07.921Z,121.83
2018-06-25T15:50:36.473Z,99.30
2018-06-25T15:53:04.953Z,134.07
2018-06-25T15:55:33.442Z,109.10
2018-06-25T15:58:01.992Z,108.83
2018-06-25T16:00:30.483Z,116.63
2018-06-25T16:02:58.926Z,91.53
2018-06-25T16:05:27.419Z,76.17
2018-06-25T16:07:56.146Z,96.10
2018-06-25T16:10:24.640Z,89.97
2018-06-25T16:12:55.080Z,83.30
2018-06-25T16:15:23.565Z,81.27
2018-06-25T16:17:52.097Z,86.07
2018-06-25T16:20:20.911Z,85.97
2018-06-25T16:22:49.419Z,82.03
2018-06-25T16:25:17.904Z,78.47
2018-06-25T16:27:46.416Z,80.07
2018-06-25T16:30:14.929Z,86.83
2018-06-25T16:32:43.423Z,79.27
2018-06-25T16:35:11.936Z,83.77
2018-06-25T16:37:40.407Z,160.00
2018-06-25T16:40:08.994Z,137.77
2018-06-25T16:42:37.484Z,148.23
2018-06-25T16:45:16.956Z,154.83
2018-06-25T16:47:50.113Z,174.53
2018-06-25T16:50:24.076Z,145.10
2018-06-25T16:53:05.301Z,159.87
2018-06-25T16:55:42.153Z,148.57
2018-06-25T16:58:24.301Z,147.90
2018-06-25T17:01:10.512Z,142.23
2018-06-25T17:03:48.979Z,132.87
2018-06-25T17:06:18.809Z,127.73
2018-06-25T17:08:48.505Z,117.30
2018-06-25T17:11:17.073Z,114.57
2018-06-25T17:13:45.790Z,110.20
2018-06-25T17:16:14.639Z,119.07
2018-06-25T17:18:43.812Z,106.27
2018-06-25T17:21:11.989Z,106.40
2018-06-25T17:23:44.253Z,111.43
2018-06-25T17:26:15.933Z,112.20
2018-06-25T17:28:46.865Z,111.00
2018-06-25T17:31:15.436Z,132.57
2018-06-25T17:33:43.935Z,124.93
2018-06-25T17:36:12.431Z,119.33
2018-06-25T17:38:40.994Z,131.00
2018-06-25T17:41:09.515Z,120.10
2018-06-25T17:43:38.035Z,139.37
2018-06-25T17:46:07.011Z,128.50
2018-06-25T17:48:35.746Z,145.60
2018-06-25T17:51:04.953Z,150.90
2018-06-25T17:53:33.149Z,116.37
2018-06-25T17:56:01.653Z,110.63
2018-06-25T17:58:30.275Z,110.07
2018-06-25T18:00:59.103Z,116.07
2018-06-25T18:03:28.486Z,105.33
2018-06-25T18:05:57.383Z,110.33
2018-06-25T18:08:25.582Z,123.63
2018-06-25T18:10:54.116Z,100.27
2018-06-25T18:13:22.665Z,107.60
2018-06-25T18:15:51.146Z,93.90
2018-06-25T18:18:19.657Z,86.43
2018-06-25T18:20:48.272Z,103.37
2018-06-25T18:23:16.765Z,95.93
2018-06-25T18:25:45.243Z,93.80
2018-06-25T18:28:13.749Z,90.33
2018-06-25T18:30:43.132Z,92.23
2018-06-25T18:33:11.759Z,134.37
2018-06-25T18:35:44.680Z,127.87
2018-06-25T18:38:20.778Z,132.93
2018-06-25T18:41:01.403Z,145.17
2018-06-25T18:43:42.270Z,129.63
2018-06-25T18:46:16.968Z,125.07
2018-06-25T18:48:49.931Z,136.50
2018-06-25T18:51:23.493Z,148.37
2018-06-25T18:53:57.526Z,136.07
2018-06-25T18:56:30.759Z,132.60
2018-06-25T18:59:05.410Z,120.57
2018-06-25T19:01:39.562Z,107.53
2018-06-25T19:04:12.494Z,83.33
2018-06-25T19:06:45.691Z,89.30
2018-06-25T19:09:17.537Z,98.10
2018-06-25T19:11:56.178Z,117.80
2018-06-25T19:14:30.425Z,110.27
2018-06-25T19:17:03.665Z,115.80
2018-06-25T19:19:37.040Z,107.70
2018-06-25T19:22:11.147Z,80.03
2018-06-25T19:24:44.145Z,86.00
2018-06-25T19:27:16.815Z,84.57
2018-06-25T19:29:50.705Z,81.87
2018-06-25T19:32:23.650Z,88.00
2018-06-25T19:34:57.216Z,81.83
2018-06-25T19:37:38.128Z,78.47
2018-06-25T19:40:15.152Z,84.10
2018-06-25T19:42:46.293Z,78.40
2018-06-25T19:45:19.430Z,81.70
2018-06-25T19:47:55.897Z,79.47
2018-06-25T19:50:27.704Z,82.27
2018-06-25T19:53:08.104Z,84.10
2018-06-25T19:55:42.292Z,83.60
2018-06-25T19:58:15.637Z,78.77
2018-06-25T20:00:48.943Z,81.00
2018-06-25T20:03:21.751Z,82.47
2018-06-25T20:05:54.446Z,85.07
2018-06-25T20:08:27.208Z,83.87
2018-06-25T20:11:08.586Z,86.33
2018-06-25T20:13:44.649Z,77.20
2018-06-25T20:16:16.712Z,80.97
2018-06-25T20:18:49.653Z,75.17
2018-06-25T20:21:19.593Z,77.03
2018-06-25T20:23:51.658Z,75.43
2018-06-25T20:26:24.081Z,76.13
2018-06-25T20:29:00.745Z,80.27
2018-06-25T20:31:34.488Z,80.80
2018-06-25T20:34:10.579Z,78.40
2018-06-25T20:36:42.352Z,75.83
2018-06-25T20:39:16.952Z,70.23
2018-06-25T20:41:50.273Z,69.80
2018-06-25T20:44:25.239Z,69.70
2018-06-25T20:47:05.248Z,75.83
2018-06-25T20:49:38.927Z,71.13
2018-06-25T20:52:10.974Z,64.77
2018-06-25T20:54:45.455Z,61.80
2018-06-25T20:57:14.025Z,65.33
2018-06-25T20:59:42.699Z,56.80
2018-06-25T21:02:11.216Z,76.07
2018-06-25T21:04:39.749Z,84.60
2018-06-25T21:07:09.895Z,74.60
2018-06-25T21:09:38.578Z,76.00
2018-06-25T21:12:07.107Z,73.63
2018-06-25T21:14:35.680Z,75.30
2018-06-25T21:17:04.302Z,60.87
2018-06-25T21:19:32.860Z,52.50
2018-06-25T21:22:01.462Z,59.13
2018-06-25T21:24:29.975Z,58.73
2018-06-25T21:26:58.474Z,55.07
2018-06-25T21:29:26.967Z,53.70
2018-06-25T21:31:55.513Z,52.43
2018-06-25T21:34:24.044Z,56.90
2018-06-25T21:36:52.798Z,50.70
2018-06-25T21:39:21.483Z,53.83
2018-06-25T21:41:50.655Z,63.17
2018-06-25T21:44:19.341Z,58.77
2018-06-25T21:46:47.846Z,85.23
2018-06-25T21:49:16.413Z,64.03
2018-06-25T21:51:44.869Z,75.83
2018-06-25T21:54:13.363Z,62.37
2018-06-25T21:56:42.375Z,66.93
2018-06-25T21:59:12.449Z,63.40
2018-06-25T22:01:41.012Z,59.80
2018-06-25T22:04:10.967Z,64.53
2018-06-25T22:06:39.421Z,66.97
2018-06-25T22:09:09.616Z,63.40
2018-06-25T22:11:39.705Z,57.03
2018-06-25T22:14:09.209Z,60.30
2018-06-25T22:16:37.735Z,65.53
2018-06-25T22:19:06.354Z,61.17
2018-06-25T22:21:35.318Z,55.30
2018-06-25T22:24:04.898Z,62.80
2018-06-25T22:26:33.656Z,57.80
2018-06-25T22:29:02.388Z,58.50
2018-06-25T22:31:31.184Z,57.47
2018-06-25T22:33:59.684Z,60.57
2018-06-25T22:36:28.758Z,55.87
2018-06-25T22:38:57.598Z,56.83
2018-06-25T22:41:26.799Z,51.83
2018-06-25T22:44:05.899Z,53.93
2018-06-25T22:46:35.255Z,54.83
2018-06-25T22:49:03.772Z,54.20
2018-06-25T22:51:33.738Z,56.20
2018-06-25T22:54:02.235Z,56.47
2018-06-25T22:56:30.734Z,53.87
2018-06-25T22:58:59.211Z,51.83
2018-06-25T23:01:28.152Z,51.00
2018-06-25T23:03:56.727Z,51.57
2018-06-25T23:06:25.300Z,51.50
2018-06-25T23:08:53.772Z,52.17
2018-06-25T23:11:22.359Z,44.97
2018-06-25T23:13:50.839Z,50.00
2018-06-25T23:16:19.283Z,49.70
2018-06-25T23:18:47.780Z,49.43
2018-06-25T23:21:16.263Z,51.20
2018-06-25T23:23:44.861Z,52.70
2018-06-25T23:26:13.315Z,49.90
2018-06-25T23:28:41.834Z,51.03
2018-06-25T23:31:10.306Z,50.10
2018-06-25T23:33:38.928Z,50.97
2018-06-25T23:36:07.512Z,50.37
2018-06-25T23:38:36.036Z,48.50
2018-06-25T23:41:04.540Z,51.93
2018-06-25T23:43:33.035Z,50.27
2018-06-25T23:46:01.527Z,55.90
2018-06-25T23:48:30.072Z,53.87
2018-06-25T23:50:58.611Z,51.80
2018-06-25T23:53:27.074Z,52.57
2018-06-25T23:56:02.236Z,53.63
2018-06-25T23:58:30.709Z,56.07
